Terminal Aerodrome Forecast
Issued by NWS Duluth, MN

Home | Current Version | Previous Version | Text Only | Print | Product List | Glossary On
Versions: 1 2 3 4 5 6 7 8 9 10 11 12 13 14 15 16 17 18 19 20 21 22 23 24 25
000
FTUS43 KDLH 301800 AAA
TAFDLH
TAF AMD
KDLH 301828Z 3018/3118 29012G16KT P6SM SCT060
      TEMPO 3018/3020 6SM TSRA BKN030CB
     FM302000 30013G18KT P6SM VCSH BKN060
      TEMPO 3020/3023 5SM TSRA BKN025CB
     FM310100 29005KT P6SM SCT080
     FM311600 31010KT P6SM SCT045=

USA.gov is the U.S. government's official web portal to all federal, state and local government web resources and services.